KDLH/DLH METAR and TAF weather

Enter ICAO airport designator
Station Type Date Time Source
KDLH METAR 2023/02/05 12:55 UTC NOAA

KDLH 051255Z 33010KT 10SM CLR M11/M13 A2983 RMK AO2 SLP134 T11061128


Station Type Date Time Source
KDLH Decoded METAR 2023/02/05 12:55 UTC NOAA

Duluth, Duluth International Airport, MN, United States (KDLH) 46-50-34N 092-13-34W 435M
Feb 05, 2023 - 07:55 AM EST / 2023.02.05 1255 UTC
Wind: from the NNW (330 degrees) at 12 MPH (10 KT):0
Visibility: 10 mile(s):0
Sky conditions: clear
Temperature: 12.9 F (-10.6 C)
Windchill: 0 F (-18 C):1
Dew Point: 9.0 F (-12.8 C)
Relative Humidity: 83%
Pressure (altimeter): 29.83 in. Hg (1010 hPa)
ob: KDLH 051255Z 33010KT 10SM CLR M11/M13 A2983 RMK AO2 SLP134 T11061128
cycle: 13

Station Type Date Time Source
KDLH TAF 2023/02/05 12:22 UTC NOAA

TAF KDLH 051120Z 0512/0612 33008KT P6SM BKN080
FM051900 32007KT P6SM SCT035
FM060000 28004KT P6SM SCT045
FM060400 24004KT P6SM FEW040
FM060900 20006KT P6SM SCT045

Example: see airport list